Weather at Ken Jones Airport

Public forecast

Using degrees Celsius for public forecast. Weather courtesy of forecast.io.

Closest aviation weather report (METAR) to Ken Jones Airport

Closest report is Norman Manley International Airport, 21.4 nm (39.6 km) SW. Retrieved 2022/01/24 11:00 UTC (27 minutes ago):

MKJP 241100Z 33009KT 9999 FEW022 24/19 Q1013

Closest aviation forecast (TAF) to Ken Jones Airport

Closest forecast is Norman Manley International Airport, 21.4 nm (39.6 km) SW. Retrieved 2022/01/24 06:21 UTC (5 hours ago):

TAF MKJP 240515Z 2406/2506 35005KT 9999 FEW022 BECMG 2514/2516 14015KT BECMG 2501/2503 35005KT